This is the latest recevied weather packets stored in our database for station/object PY2CQC-13. If no packets are shown the sender has not sent any weather packets the latest 10 day(s).
| Time | Temp. | Humidity | Pressure | Rain* | Wind** | Luminosity | Snow |
|---|---|---|---|---|---|---|---|
| 1777069924 | 25° C | 64% | 1032.5 hPa | - | - | - | - |
| 1777068124 | 25° C | 62% | 1032.5 hPa | - | - | - | - |
| 1777066324 | 26.11° C | 60% | 1032.3 hPa | - | - | - | - |
| 1777064525 | 26.67° C | 57% | 1032.2 hPa | - | - | - | - |
| 1777062725 | 27.22° C | 55% | 1032.3 hPa | - | - | - | - |
| 1777060925 | 27.22° C | 51% | 1032.2 hPa | - | - | - | - |
| 1777059125 | 27.78° C | 52% | 1032 hPa | - | - | - | - |
| 1777057324 | 27.78° C | 49% | 1032 hPa | - | - | - | - |
| 1777055524 | 27.78° C | 51% | 1031.9 hPa | - | - | - | - |
| 1777053724 | 27.78° C | 49% | 1032 hPa | - | - | - | - |
| 1777051925 | 28.33° C | 50% | 1032.1 hPa | - | - | - | - |
| 1777050125 | 28.33° C | 49% | 1032.5 hPa | - | - | - | - |
| 1777048325 | 28.33° C | 49% | 1032.9 hPa | - | - | - | - |
| 1777046524 | 28.33° C | 50% | 1033.3 hPa | - | - | - | - |
| 1777044724 | 27.78° C | 50% | 1033.8 hPa | - | - | - | - |
| 1777042924 | 27.22° C | 53% | 1034.5 hPa | - | - | - | - |
| 1777041124 | 26.11° C | 58% | 1035.1 hPa | - | - | - | - |
| 1777039325 | 25.56° C | 60% | 1035.6 hPa | - | - | - | - |
| 1777037525 | 24.44° C | 62% | 1036 hPa | - | - | - | - |
| 1777035725 | 23.33° C | 63% | 1036.2 hPa | - | - | - | - |
| 1777033925 | 22.22° C | 70% | 1036.5 hPa | - | - | - | - |
| 1777032124 | 21.11° C | 72% | 1036.6 hPa | - | - | - | - |
| 1777030324 | 20° C | 76% | 1036.6 hPa | - | - | - | - |
| 1777028524 | 18.89° C | 79% | 1036.5 hPa | - | - | - | - |
| 1777026725 | 17.78° C | 86% | 1036.2 hPa | - | - | - | - |
* Rain since midnight (hover to see other rain measurements)
** Current wind speed in m/s (hover to see current wind gust speed)